Terminal Aerodrome Forecast
Issued by NWS

Home | Current Version | Previous Version | Text Only | Print | Product List | Glossary On
Versions: 1 2 3 4 5 6 7 8 9 10 11 12 13 14 15 16
084
FTUS41 KBTV 240538
TAFMPV
TAF
KMPV 240538Z 2406/2506 VRB03KT P6SM OVC100
     FM241300 18005KT P6SM OVC050
     FM241600 18008KT 5SM -SN BR OVC035
      TEMPO 2417/2421 2SM -SN BR OVC020
     FM242100 18008KT 2SM -RASN BR OVC020
     FM250100 23005KT 3SM -RA BR OVC015=

USA.gov is the U.S. government's official web portal to all federal, state and local government web resources and services.